sensor_id;sensor_type;location;lat;lon;timestamp;temperature;humidity
19732;DHT22;10017;54.350;18.532;2022-07-18T00:01:29;13.10;99.90
19732;DHT22;10017;54.350;18.532;2022-07-18T00:04:04;13.10;99.90
19732;DHT22;10017;54.350;18.532;2022-07-18T00:06:36;13.10;99.90
19732;DHT22;10017;54.350;18.532;2022-07-18T00:09:08;13.10;99.90
19732;DHT22;10017;54.350;18.532;2022-07-18T00:11:40;13.10;99.90
19732;DHT22;10017;54.350;18.532;2022-07-18T00:14:13;13.10;99.90
19732;DHT22;10017;54.350;18.532;2022-07-18T00:16:45;13.10;99.90
19732;DHT22;10017;54.350;18.532;2022-07-18T00:19:18;13.10;99.90
19732;DHT22;10017;54.350;18.532;2022-07-18T00:21:50;13.10;99.90
19732;DHT22;10017;54.350;18.532;2022-07-18T00:24:22;13.10;99.90
19732;DHT22;10017;54.350;18.532;2022-07-18T00:26:54;13.10;99.90
19732;DHT22;10017;54.350;18.532;2022-07-18T00:29:26;13.10;99.90
19732;DHT22;10017;54.350;18.532;2022-07-18T00:31:59;13.10;99.90
19732;DHT22;10017;54.350;18.532;2022-07-18T00:34:31;13.10;99.90
19732;DHT22;10017;54.350;18.532;2022-07-18T00:37:03;13.10;99.90
19732;DHT22;10017;54.350;18.532;2022-07-18T00:39:35;13.00;99.90
19732;DHT22;10017;54.350;18.532;2022-07-18T00:42:09;13.00;99.90
19732;DHT22;10017;54.350;18.532;2022-07-18T00:44:41;13.00;99.90
19732;DHT22;10017;54.350;18.532;2022-07-18T00:47:13;13.00;99.90
19732;DHT22;10017;54.350;18.532;2022-07-18T00:49:45;13.00;99.90
19732;DHT22;10017;54.350;18.532;2022-07-18T00:52:18;13.00;99.90
19732;DHT22;10017;54.350;18.532;2022-07-18T00:54:50;12.90;99.90
19732;DHT22;10017;54.350;18.532;2022-07-18T00:57:22;12.90;99.90
19732;DHT22;10017;54.350;18.532;2022-07-18T00:59:54;12.90;99.90
19732;DHT22;10017;54.350;18.532;2022-07-18T01:02:45;12.90;99.90
19732;DHT22;10017;54.350;18.532;2022-07-18T01:05:17;12.90;99.90
19732;DHT22;10017;54.350;18.532;2022-07-18T01:07:51;12.90;99.90
19732;DHT22;10017;54.350;18.532;2022-07-18T01:10:23;12.90;99.90
19732;DHT22;10017;54.350;18.532;2022-07-18T01:12:55;12.90;99.90
19732;DHT22;10017;54.350;18.532;2022-07-18T01:15:28;12.90;99.90
19732;DHT22;10017;54.350;18.532;2022-07-18T01:18:00;12.90;99.90
19732;DHT22;10017;54.350;18.532;2022-07-18T01:20:32;12.90;99.90
19732;DHT22;10017;54.350;18.532;2022-07-18T01:23:05;12.90;99.90
19732;DHT22;10017;54.350;18.532;2022-07-18T01:25:41;12.90;99.90
19732;DHT22;10017;54.350;18.532;2022-07-18T01:28:14;12.90;99.90
19732;DHT22;10017;54.350;18.532;2022-07-18T01:30:45;13.00;99.90
19732;DHT22;10017;54.350;18.532;2022-07-18T01:33:17;13.00;99.90
19732;DHT22;10017;54.350;18.532;2022-07-18T01:35:49;13.00;99.90
19732;DHT22;10017;54.350;18.532;2022-07-18T01:38:21;13.00;99.90
19732;DHT22;10017;54.350;18.532;2022-07-18T01:40:56;12.90;99.90
19732;DHT22;10017;54.350;18.532;2022-07-18T01:43:29;12.90;99.90
19732;DHT22;10017;54.350;18.532;2022-07-18T01:46:03;12.90;99.90
19732;DHT22;10017;54.350;18.532;2022-07-18T01:48:41;12.90;99.90
19732;DHT22;10017;54.350;18.532;2022-07-18T01:51:13;12.90;99.90
19732;DHT22;10017;54.350;18.532;2022-07-18T01:53:57;12.90;99.90
19732;DHT22;10017;54.350;18.532;2022-07-18T01:56:30;12.90;99.90
19732;DHT22;10017;54.350;18.532;2022-07-18T01:59:03;12.90;99.90
19732;DHT22;10017;54.350;18.532;2022-07-18T02:01:37;12.90;99.90
19732;DHT22;10017;54.350;18.532;2022-07-18T02:04:09;12.90;99.90
19732;DHT22;10017;54.350;18.532;2022-07-18T02:06:44;12.90;99.90
19732;DHT22;10017;54.350;18.532;2022-07-18T02:09:16;12.90;99.90
19732;DHT22;10017;54.350;18.532;2022-07-18T02:11:48;12.90;99.90
19732;DHT22;10017;54.350;18.532;2022-07-18T02:14:20;12.80;99.90
19732;DHT22;10017;54.350;18.532;2022-07-18T02:16:55;12.80;99.90
19732;DHT22;10017;54.350;18.532;2022-07-18T02:19:27;12.90;99.90
19732;DHT22;10017;54.350;18.532;2022-07-18T02:21:58;12.90;99.90
19732;DHT22;10017;54.350;18.532;2022-07-18T02:24:30;12.80;99.90
19732;DHT22;10017;54.350;18.532;2022-07-18T02:27:03;12.90;99.90
19732;DHT22;10017;54.350;18.532;2022-07-18T02:29:38;12.90;99.90
19732;DHT22;10017;54.350;18.532;2022-07-18T02:32:09;12.90;99.90
19732;DHT22;10017;54.350;18.532;2022-07-18T02:34:44;12.90;99.90
19732;DHT22;10017;54.350;18.532;2022-07-18T02:37:16;12.90;99.90
19732;DHT22;10017;54.350;18.532;2022-07-18T02:39:48;12.90;99.90
19732;DHT22;10017;54.350;18.532;2022-07-18T02:42:21;12.90;99.90
19732;DHT22;10017;54.350;18.532;2022-07-18T02:44:54;12.90;99.90
19732;DHT22;10017;54.350;18.532;2022-07-18T02:47:26;13.00;99.90
19732;DHT22;10017;54.350;18.532;2022-07-18T02:49:58;13.00;99.90
19732;DHT22;10017;54.350;18.532;2022-07-18T02:52:30;13.00;99.90
19732;DHT22;10017;54.350;18.532;2022-07-18T02:55:03;13.00;99.90
19732;DHT22;10017;54.350;18.532;2022-07-18T02:57:35;13.00;99.90
19732;DHT22;10017;54.350;18.532;2022-07-18T03:00:10;13.00;99.90
19732;DHT22;10017;54.350;18.532;2022-07-18T03:02:46;13.00;99.90
19732;DHT22;10017;54.350;18.532;2022-07-18T03:05:18;13.00;99.90
19732;DHT22;10017;54.350;18.532;2022-07-18T03:07:53;13.10;99.90
19732;DHT22;10017;54.350;18.532;2022-07-18T03:10:25;13.10;99.90
19732;DHT22;10017;54.350;18.532;2022-07-18T03:12:57;13.10;99.90
19732;DHT22;10017;54.350;18.532;2022-07-18T03:15:31;13.10;99.90
19732;DHT22;10017;54.350;18.532;2022-07-18T03:18:05;13.20;99.90
19732;DHT22;10017;54.350;18.532;2022-07-18T03:20:39;13.20;99.90
19732;DHT22;10017;54.350;18.532;2022-07-18T03:23:11;13.20;99.90
19732;DHT22;10017;54.350;18.532;2022-07-18T03:25:43;13.30;99.90
19732;DHT22;10017;54.350;18.532;2022-07-18T03:28:15;13.40;99.90
19732;DHT22;10017;54.350;18.532;2022-07-18T03:30:50;13.40;99.90
19732;DHT22;10017;54.350;18.532;2022-07-18T03:33:24;13.40;99.90
19732;DHT22;10017;54.350;18.532;2022-07-18T03:35:56;13.50;99.90
19732;DHT22;10017;54.350;18.532;2022-07-18T03:38:28;13.60;99.90
19732;DHT22;10017;54.350;18.532;2022-07-18T03:41:01;13.70;99.90
19732;DHT22;10017;54.350;18.532;2022-07-18T03:43:36;13.70;99.90
19732;DHT22;10017;54.350;18.532;2022-07-18T03:46:09;13.80;99.90
19732;DHT22;10017;54.350;18.532;2022-07-18T03:48:41;13.80;99.90
19732;DHT22;10017;54.350;18.532;2022-07-18T03:51:13;13.90;99.90
19732;DHT22;10017;54.350;18.532;2022-07-18T03:53:45;13.90;99.90
19732;DHT22;10017;54.350;18.532;2022-07-18T03:56:17;14.00;99.90
19732;DHT22;10017;54.350;18.532;2022-07-18T03:58:51;14.00;99.90
19732;DHT22;10017;54.350;18.532;2022-07-18T04:01:23;14.10;99.90
19732;DHT22;10017;54.350;18.532;2022-07-18T04:03:57;14.10;99.90
19732;DHT22;10017;54.350;18.532;2022-07-18T04:06:29;14.20;99.90
19732;DHT22;10017;54.350;18.532;2022-07-18T04:09:02;14.20;99.90
19732;DHT22;10017;54.350;18.532;2022-07-18T04:11:36;14.30;99.90
19732;DHT22;10017;54.350;18.532;2022-07-18T04:14:09;14.30;99.90
19732;DHT22;10017;54.350;18.532;2022-07-18T04:16:41;14.40;99.90
19732;DHT22;10017;54.350;18.532;2022-07-18T04:19:12;14.40;99.90
19732;DHT22;10017;54.350;18.532;2022-07-18T04:21:45;14.50;99.90
19732;DHT22;10017;54.350;18.532;2022-07-18T04:24:17;14.60;99.90
19732;DHT22;10017;54.350;18.532;2022-07-18T04:26:50;14.60;99.90
19732;DHT22;10017;54.350;18.532;2022-07-18T04:29:22;14.60;99.90
19732;DHT22;10017;54.350;18.532;2022-07-18T04:31:54;14.70;99.90
19732;DHT22;10017;54.350;18.532;2022-07-18T04:34:26;14.70;99.90
19732;DHT22;10017;54.350;18.532;2022-07-18T04:36:58;14.70;99.90
19732;DHT22;10017;54.350;18.532;2022-07-18T04:39:31;14.80;99.90
19732;DHT22;10017;54.350;18.532;2022-07-18T04:42:03;14.80;99.90
19732;DHT22;10017;54.350;18.532;2022-07-18T04:44:38;14.80;99.90
19732;DHT22;10017;54.350;18.532;2022-07-18T04:47:12;14.90;99.90
19732;DHT22;10017;54.350;18.532;2022-07-18T04:49:47;15.00;99.90
19732;DHT22;10017;54.350;18.532;2022-07-18T04:52:19;15.00;99.90
19732;DHT22;10017;54.350;18.532;2022-07-18T04:54:53;15.10;99.90
19732;DHT22;10017;54.350;18.532;2022-07-18T04:57:25;15.10;99.90
19732;DHT22;10017;54.350;18.532;2022-07-18T05:00:00;15.20;99.90
19732;DHT22;10017;54.350;18.532;2022-07-18T05:02:35;15.20;99.90
19732;DHT22;10017;54.350;18.532;2022-07-18T05:05:13;15.30;99.90
19732;DHT22;10017;54.350;18.532;2022-07-18T05:07:47;15.40;99.90
19732;DHT22;10017;54.350;18.532;2022-07-18T05:10:21;15.50;99.90
19732;DHT22;10017;54.350;18.532;2022-07-18T05:12:55;15.60;99.90
19732;DHT22;10017;54.350;18.532;2022-07-18T05:15:28;15.70;99.90
19732;DHT22;10017;54.350;18.532;2022-07-18T05:18:00;15.80;99.90
19732;DHT22;10017;54.350;18.532;2022-07-18T05:20:33;16.00;99.90
19732;DHT22;10017;54.350;18.532;2022-07-18T05:23:14;16.20;99.90
19732;DHT22;10017;54.350;18.532;2022-07-18T05:25:46;16.40;99.90
19732;DHT22;10017;54.350;18.532;2022-07-18T05:28:20;16.70;99.90
19732;DHT22;10017;54.350;18.532;2022-07-18T05:30:53;17.10;99.90
19732;DHT22;10017;54.350;18.532;2022-07-18T05:33:26;17.40;99.90
19732;DHT22;10017;54.350;18.532;2022-07-18T05:36:04;17.80;99.90
19732;DHT22;10017;54.350;18.532;2022-07-18T05:38:36;18.10;99.90
19732;DHT22;10017;54.350;18.532;2022-07-18T05:41:08;18.40;99.90
19732;DHT22;10017;54.350;18.532;2022-07-18T05:43:40;18.60;99.90
19732;DHT22;10017;54.350;18.532;2022-07-18T05:46:12;18.80;99.90
19732;DHT22;10017;54.350;18.532;2022-07-18T05:48:48;18.90;99.90
19732;DHT22;10017;54.350;18.532;2022-07-18T05:51:23;19.00;99.90
19732;DHT22;10017;54.350;18.532;2022-07-18T05:53:55;19.10;99.90
19732;DHT22;10017;54.350;18.532;2022-07-18T05:56:29;19.20;99.90
19732;DHT22;10017;54.350;18.532;2022-07-18T05:59:02;19.40;99.90
19732;DHT22;10017;54.350;18.532;2022-07-18T06:01:34;19.60;99.90
19732;DHT22;10017;54.350;18.532;2022-07-18T06:04:09;19.60;99.90
19732;DHT22;10017;54.350;18.532;2022-07-18T06:06:41;19.50;99.90
19732;DHT22;10017;54.350;18.532;2022-07-18T06:09:16;19.40;99.90
19732;DHT22;10017;54.350;18.532;2022-07-18T06:11:49;19.30;99.90
19732;DHT22;10017;54.350;18.532;2022-07-18T06:14:23;19.20;99.90
19732;DHT22;10017;54.350;18.532;2022-07-18T06:16:58;19.20;99.90
19732;DHT22;10017;54.350;18.532;2022-07-18T06:19:30;19.20;99.90
19732;DHT22;10017;54.350;18.532;2022-07-18T06:22:02;19.20;99.90
19732;DHT22;10017;54.350;18.532;2022-07-18T06:24:36;19.10;99.90
19732;DHT22;10017;54.350;18.532;2022-07-18T06:27:10;19.00;99.90
19732;DHT22;10017;54.350;18.532;2022-07-18T06:29:44;19.00;99.90
19732;DHT22;10017;54.350;18.532;2022-07-18T06:32:16;18.80;99.90
19732;DHT22;10017;54.350;18.532;2022-07-18T06:34:48;18.90;99.90
19732;DHT22;10017;54.350;18.532;2022-07-18T06:37:20;18.90;99.90
19732;DHT22;10017;54.350;18.532;2022-07-18T06:39:52;18.80;99.90
19732;DHT22;10017;54.350;18.532;2022-07-18T06:42:24;18.90;99.90
19732;DHT22;10017;54.350;18.532;2022-07-18T06:44:56;19.00;99.90
19732;DHT22;10017;54.350;18.532;2022-07-18T06:47:28;19.00;99.90
19732;DHT22;10017;54.350;18.532;2022-07-18T06:50:00;19.10;99.90
19732;DHT22;10017;54.350;18.532;2022-07-18T06:52:32;19.10;99.90
19732;DHT22;10017;54.350;18.532;2022-07-18T06:55:04;19.10;99.90
19732;DHT22;10017;54.350;18.532;2022-07-18T06:57:37;19.20;99.90
19732;DHT22;10017;54.350;18.532;2022-07-18T07:00:13;19.10;99.90
19732;DHT22;10017;54.350;18.532;2022-07-18T07:02:47;19.00;99.90
19732;DHT22;10017;54.350;18.532;2022-07-18T07:05:24;18.80;99.90
19732;DHT22;10017;54.350;18.532;2022-07-18T07:07:56;18.70;99.90
19732;DHT22;10017;54.350;18.532;2022-07-18T07:10:29;18.70;99.90
19732;DHT22;10017;54.350;18.532;2022-07-18T07:13:03;18.80;99.90
19732;DHT22;10017;54.350;18.532;2022-07-18T07:15:35;18.80;99.90
19732;DHT22;10017;54.350;18.532;2022-07-18T07:18:08;18.70;99.90
19732;DHT22;10017;54.350;18.532;2022-07-18T07:20:40;18.70;99.90
19732;DHT22;10017;54.350;18.532;2022-07-18T07:23:12;18.60;99.90
19732;DHT22;10017;54.350;18.532;2022-07-18T07:25:44;18.70;99.90
19732;DHT22;10017;54.350;18.532;2022-07-18T07:28:19;18.60;99.90
19732;DHT22;10017;54.350;18.532;2022-07-18T07:30:51;18.70;99.90
19732;DHT22;10017;54.350;18.532;2022-07-18T07:33:23;18.70;99.90
19732;DHT22;10017;54.350;18.532;2022-07-18T07:35:55;18.70;99.90
19732;DHT22;10017;54.350;18.532;2022-07-18T07:38:29;18.60;99.90
19732;DHT22;10017;54.350;18.532;2022-07-18T07:41:01;18.70;99.90
19732;DHT22;10017;54.350;18.532;2022-07-18T07:43:33;18.60;99.90
19732;DHT22;10017;54.350;18.532;2022-07-18T07:46:08;18.60;99.90
19732;DHT22;10017;54.350;18.532;2022-07-18T07:48:45;18.50;99.90
19732;DHT22;10017;54.350;18.532;2022-07-18T07:51:19;18.50;99.90
19732;DHT22;10017;54.350;18.532;2022-07-18T07:53:58;18.50;99.90
19732;DHT22;10017;54.350;18.532;2022-07-18T07:56:30;18.50;99.90
19732;DHT22;10017;54.350;18.532;2022-07-18T07:59:04;18.50;99.90
19732;DHT22;10017;54.350;18.532;2022-07-18T08:01:37;18.50;99.90
19732;DHT22;10017;54.350;18.532;2022-07-18T08:04:09;18.50;99.90
19732;DHT22;10017;54.350;18.532;2022-07-18T08:06:41;18.60;99.90
19732;DHT22;10017;54.350;18.532;2022-07-18T08:09:13;18.70;99.90
19732;DHT22;10017;54.350;18.532;2022-07-18T08:11:48;18.80;99.90
19732;DHT22;10017;54.350;18.532;2022-07-18T08:14:20;19.00;99.90
19732;DHT22;10017;54.350;18.532;2022-07-18T08:16:54;19.00;99.90
19732;DHT22;10017;54.350;18.532;2022-07-18T08:19:27;19.10;99.90
19732;DHT22;10017;54.350;18.532;2022-07-18T08:22:01;19.10;99.90
19732;DHT22;10017;54.350;18.532;2022-07-18T08:24:35;19.10;99.90
19732;DHT22;10017;54.350;18.532;2022-07-18T08:27:07;19.10;99.90
19732;DHT22;10017;54.350;18.532;2022-07-18T08:29:40;19.00;99.90
19732;DHT22;10017;54.350;18.532;2022-07-18T08:32:33;19.00;99.90
19732;DHT22;10017;54.350;18.532;2022-07-18T08:35:05;19.10;99.90
19732;DHT22;10017;54.350;18.532;2022-07-18T08:37:38;19.20;99.90
19732;DHT22;10017;54.350;18.532;2022-07-18T08:40:10;19.30;99.90
19732;DHT22;10017;54.350;18.532;2022-07-18T08:42:42;19.40;99.90
19732;DHT22;10017;54.350;18.532;2022-07-18T08:45:35;19.50;99.90
19732;DHT22;10017;54.350;18.532;2022-07-18T08:48:07;19.50;99.90
19732;DHT22;10017;54.350;18.532;2022-07-18T08:50:45;19.30;99.90
19732;DHT22;10017;54.350;18.532;2022-07-18T08:53:19;19.20;99.90
19732;DHT22;10017;54.350;18.532;2022-07-18T08:55:51;19.00;99.90
19732;DHT22;10017;54.350;18.532;2022-07-18T08:58:23;19.00;99.90
19732;DHT22;10017;54.350;18.532;2022-07-18T09:01:17;19.00;99.90
19732;DHT22;10017;54.350;18.532;2022-07-18T09:03:54;19.00;99.90
19732;DHT22;10017;54.350;18.532;2022-07-18T09:06:50;19.00;99.90
19732;DHT22;10017;54.350;18.532;2022-07-18T09:09:25;19.10;99.90
19732;DHT22;10017;54.350;18.532;2022-07-18T09:14:42;19.60;99.90
19732;DHT22;10017;54.350;18.532;2022-07-18T09:17:18;19.90;99.90
19732;DHT22;10017;54.350;18.532;2022-07-18T09:22:38;20.40;97.60
19732;DHT22;10017;54.350;18.532;2022-07-18T09:25:12;20.80;82.10
19732;DHT22;10017;54.350;18.532;2022-07-18T09:27:48;21.00;78.00
19732;DHT22;10017;54.350;18.532;2022-07-18T09:30:31;21.10;58.20
19732;DHT22;10017;54.350;18.532;2022-07-18T09:33:08;21.20;44.40
19732;DHT22;10017;54.350;18.532;2022-07-18T09:35:46;21.30;39.80
19732;DHT22;10017;54.350;18.532;2022-07-18T09:38:21;21.20;31.50
19732;DHT22;10017;54.350;18.532;2022-07-18T09:40:55;21.10;33.40
19732;DHT22;10017;54.350;18.532;2022-07-18T09:43:37;21.00;42.60
19732;DHT22;10017;54.350;18.532;2022-07-18T09:46:09;20.80;32.30
19732;DHT22;10017;54.350;18.532;2022-07-18T09:49:10;20.70;37.40
19732;DHT22;10017;54.350;18.532;2022-07-18T09:52:04;20.50;36.30
19732;DHT22;10017;54.350;18.532;2022-07-18T09:54:46;20.50;46.50
19732;DHT22;10017;54.350;18.532;2022-07-18T09:57:25;20.50;45.40
19732;DHT22;10017;54.350;18.532;2022-07-18T09:59:59;20.60;37.10
19732;DHT22;10017;54.350;18.532;2022-07-18T10:02:31;20.70;32.70
19732;DHT22;10017;54.350;18.532;2022-07-18T10:05:04;20.90;25.60
19732;DHT22;10017;54.350;18.532;2022-07-18T10:07:47;21.10;19.90
19732;DHT22;10017;54.350;18.532;2022-07-18T10:10:21;21.20;11.40
19732;DHT22;10017;54.350;18.532;2022-07-18T10:12:58;21.10;2.70
19732;DHT22;10017;54.350;18.532;2022-07-18T10:15:34;21.00;10.40
19732;DHT22;10017;54.350;18.532;2022-07-18T10:18:15;20.80;14.60
19732;DHT22;10017;54.350;18.532;2022-07-18T10:21:10;20.60;27.80
19732;DHT22;10017;54.350;18.532;2022-07-18T10:23:45;20.50;40.40
19732;DHT22;10017;54.350;18.532;2022-07-18T10:26:25;20.40;40.00
19732;DHT22;10017;54.350;18.532;2022-07-18T10:31:36;20.80;16.30
19732;DHT22;10017;54.350;18.532;2022-07-18T10:34:12;21.00;1.00
19732;DHT22;10017;54.350;18.532;2022-07-18T10:39:33;21.30;1.00
19732;DHT22;10017;54.350;18.532;2022-07-18T10:44:42;21.20;1.00
19732;DHT22;10017;54.350;18.532;2022-07-18T10:47:17;21.30;1.00
19732;DHT22;10017;54.350;18.532;2022-07-18T11:03:10;21.80;1.00
19732;DHT22;10017;54.350;18.532;2022-07-18T11:05:53;22.00;1.00
19732;DHT22;10017;54.350;18.532;2022-07-18T11:08:29;22.10;1.00
19732;DHT22;10017;54.350;18.532;2022-07-18T11:11:03;22.10;1.00
19732;DHT22;10017;54.350;18.532;2022-07-18T11:13:38;22.20;1.00
19732;DHT22;10017;54.350;18.532;2022-07-18T11:21:29;22.40;1.00
19732;DHT22;10017;54.350;18.532;2022-07-18T11:24:10;22.40;1.00
19732;DHT22;10017;54.350;18.532;2022-07-18T11:26:46;22.40;1.00
19732;DHT22;10017;54.350;18.532;2022-07-18T11:29:19;22.20;1.00
19732;DHT22;10017;54.350;18.532;2022-07-18T11:31:55;21.90;1.00
19732;DHT22;10017;54.350;18.532;2022-07-18T11:34:27;21.60;1.00
19732;DHT22;10017;54.350;18.532;2022-07-18T11:37:16;21.50;1.00
19732;DHT22;10017;54.350;18.532;2022-07-18T11:39:53;21.50;3.90
19732;DHT22;10017;54.350;18.532;2022-07-18T11:42:36;21.50;1.00
19732;DHT22;10017;54.350;18.532;2022-07-18T11:45:11;21.70;1.00
19732;DHT22;10017;54.350;18.532;2022-07-18T11:47:51;21.80;1.00
19732;DHT22;10017;54.350;18.532;2022-07-18T11:50:35;21.90;1.00
19732;DHT22;10017;54.350;18.532;2022-07-18T11:53:11;22.30;1.00
19732;DHT22;10017;54.350;18.532;2022-07-18T11:55:43;22.60;1.00
19732;DHT22;10017;54.350;18.532;2022-07-18T11:58:17;22.50;1.00
19732;DHT22;10017;54.350;18.532;2022-07-18T12:00:49;22.30;1.00
19732;DHT22;10017;54.350;18.532;2022-07-18T12:03:21;22.30;1.00
19732;DHT22;10017;54.350;18.532;2022-07-18T12:05:56;22.30;1.00
19732;DHT22;10017;54.350;18.532;2022-07-18T12:08:36;22.10;1.00
19732;DHT22;10017;54.350;18.532;2022-07-18T12:14:01;22.30;1.00
19732;DHT22;10017;54.350;18.532;2022-07-18T12:16:48;22.20;1.00
19732;DHT22;10017;54.350;18.532;2022-07-18T12:19:21;22.20;1.00
19732;DHT22;10017;54.350;18.532;2022-07-18T12:24:54;22.50;1.00
19732;DHT22;10017;54.350;18.532;2022-07-18T12:30:20;22.70;1.00
19732;DHT22;10017;54.350;18.532;2022-07-18T12:35:36;22.70;1.00
19732;DHT22;10017;54.350;18.532;2022-07-18T12:38:15;22.80;1.00
19732;DHT22;10017;54.350;18.532;2022-07-18T12:40:58;22.90;1.00
19732;DHT22;10017;54.350;18.532;2022-07-18T12:43:37;23.00;1.00
19732;DHT22;10017;54.350;18.532;2022-07-18T12:46:10;23.10;1.00
19732;DHT22;10017;54.350;18.532;2022-07-18T12:48:42;23.20;1.00
19732;DHT22;10017;54.350;18.532;2022-07-18T12:51:14;23.20;1.00
19732;DHT22;10017;54.350;18.532;2022-07-18T12:53:46;23.20;1.00
19732;DHT22;10017;54.350;18.532;2022-07-18T12:56:18;23.30;1.00
19732;DHT22;10017;54.350;18.532;2022-07-18T12:58:50;23.20;1.00
19732;DHT22;10017;54.350;18.532;2022-07-18T13:01:22;23.10;1.00
19732;DHT22;10017;54.350;18.532;2022-07-18T13:03:54;23.20;1.00
19732;DHT22;10017;54.350;18.532;2022-07-18T13:06:27;23.00;1.00
19732;DHT22;10017;54.350;18.532;2022-07-18T13:08:59;22.90;1.00
19732;DHT22;10017;54.350;18.532;2022-07-18T13:11:33;23.10;1.00
19732;DHT22;10017;54.350;18.532;2022-07-18T13:14:06;23.20;1.00
19732;DHT22;10017;54.350;18.532;2022-07-18T13:16:39;23.00;1.00
19732;DHT22;10017;54.350;18.532;2022-07-18T13:19:14;23.00;1.00
19732;DHT22;10017;54.350;18.532;2022-07-18T13:21:49;23.10;1.00
19732;DHT22;10017;54.350;18.532;2022-07-18T13:24:21;23.20;1.00
19732;DHT22;10017;54.350;18.532;2022-07-18T13:27:06;23.20;1.00
19732;DHT22;10017;54.350;18.532;2022-07-18T13:29:44;23.10;1.00
19732;DHT22;10017;54.350;18.532;2022-07-18T13:32:16;23.10;1.00
19732;DHT22;10017;54.350;18.532;2022-07-18T13:34:48;23.20;1.00
19732;DHT22;10017;54.350;18.532;2022-07-18T13:37:22;23.20;1.00
19732;DHT22;10017;54.350;18.532;2022-07-18T13:39:54;23.20;1.00
19732;DHT22;10017;54.350;18.532;2022-07-18T13:42:31;23.00;1.00
19732;DHT22;10017;54.350;18.532;2022-07-18T13:45:06;22.70;1.00
19732;DHT22;10017;54.350;18.532;2022-07-18T13:47:41;22.70;1.00
19732;DHT22;10017;54.350;18.532;2022-07-18T13:50:14;22.60;1.00
19732;DHT22;10017;54.350;18.532;2022-07-18T13:52:46;22.70;1.00
19732;DHT22;10017;54.350;18.532;2022-07-18T13:55:20;22.60;1.00
19732;DHT22;10017;54.350;18.532;2022-07-18T13:57:54;22.50;1.00
19732;DHT22;10017;54.350;18.532;2022-07-18T14:00:26;22.50;1.00
19732;DHT22;10017;54.350;18.532;2022-07-18T14:02:59;22.40;1.00
19732;DHT22;10017;54.350;18.532;2022-07-18T14:05:34;22.30;1.00
19732;DHT22;10017;54.350;18.532;2022-07-18T14:08:07;22.30;1.00
19732;DHT22;10017;54.350;18.532;2022-07-18T14:10:39;22.30;1.00
19732;DHT22;10017;54.350;18.532;2022-07-18T14:13:13;22.30;1.00
19732;DHT22;10017;54.350;18.532;2022-07-18T14:15:48;22.20;1.00
19732;DHT22;10017;54.350;18.532;2022-07-18T14:18:25;22.00;1.00
19732;DHT22;10017;54.350;18.532;2022-07-18T14:20:57;21.80;1.00
19732;DHT22;10017;54.350;18.532;2022-07-18T14:23:29;21.70;1.00
19732;DHT22;10017;54.350;18.532;2022-07-18T14:26:03;21.60;1.00
19732;DHT22;10017;54.350;18.532;2022-07-18T14:28:37;21.50;1.00
19732;DHT22;10017;54.350;18.532;2022-07-18T14:31:09;21.60;1.00
19732;DHT22;10017;54.350;18.532;2022-07-18T14:33:41;21.60;1.00
19732;DHT22;10017;54.350;18.532;2022-07-18T14:36:14;21.50;1.00
19732;DHT22;10017;54.350;18.532;2022-07-18T14:38:48;21.60;1.00
19732;DHT22;10017;54.350;18.532;2022-07-18T14:41:21;21.40;1.00
19732;DHT22;10017;54.350;18.532;2022-07-18T14:43:54;21.30;1.00
19732;DHT22;10017;54.350;18.532;2022-07-18T14:46:27;21.10;1.00
19732;DHT22;10017;54.350;18.532;2022-07-18T14:49:01;21.00;1.00
19732;DHT22;10017;54.350;18.532;2022-07-18T14:51:35;20.90;15.90
19732;DHT22;10017;54.350;18.532;2022-07-18T14:54:10;20.80;31.90
19732;DHT22;10017;54.350;18.532;2022-07-18T14:56:43;20.70;79.70
19732;DHT22;10017;54.350;18.532;2022-07-18T14:59:17;20.70;99.90
19732;DHT22;10017;54.350;18.532;2022-07-18T15:01:50;20.60;99.90
19732;DHT22;10017;54.350;18.532;2022-07-18T15:04:22;20.50;99.90
19732;DHT22;10017;54.350;18.532;2022-07-18T15:06:54;20.40;99.90
19732;DHT22;10017;54.350;18.532;2022-07-18T15:09:28;20.40;99.90
19732;DHT22;10017;54.350;18.532;2022-07-18T15:12:07;20.30;99.90
19732;DHT22;10017;54.350;18.532;2022-07-18T15:14:39;20.30;99.90
19732;DHT22;10017;54.350;18.532;2022-07-18T15:17:11;20.20;99.90
19732;DHT22;10017;54.350;18.532;2022-07-18T15:19:43;20.20;99.90
19732;DHT22;10017;54.350;18.532;2022-07-18T15:22:18;20.10;99.90
19732;DHT22;10017;54.350;18.532;2022-07-18T15:24:50;20.10;99.90
19732;DHT22;10017;54.350;18.532;2022-07-18T15:27:27;20.10;99.90
19732;DHT22;10017;54.350;18.532;2022-07-18T15:29:59;20.00;99.90
19732;DHT22;10017;54.350;18.532;2022-07-18T15:32:51;20.00;99.90
19732;DHT22;10017;54.350;18.532;2022-07-18T15:35:26;19.90;99.90
19732;DHT22;10017;54.350;18.532;2022-07-18T15:37:58;19.80;99.90
19732;DHT22;10017;54.350;18.532;2022-07-18T15:40:30;19.80;99.90
19732;DHT22;10017;54.350;18.532;2022-07-18T15:43:05;19.70;99.90
19732;DHT22;10017;54.350;18.532;2022-07-18T15:45:37;19.60;99.90
19732;DHT22;10017;54.350;18.532;2022-07-18T15:48:12;19.60;99.90
19732;DHT22;10017;54.350;18.532;2022-07-18T15:50:44;19.50;99.90
19732;DHT22;10017;54.350;18.532;2022-07-18T15:53:17;19.40;99.90
19732;DHT22;10017;54.350;18.532;2022-07-18T15:55:49;19.30;99.90
19732;DHT22;10017;54.350;18.532;2022-07-18T15:58:23;19.30;99.90
19732;DHT22;10017;54.350;18.532;2022-07-18T16:00:59;19.30;99.90
19732;DHT22;10017;54.350;18.532;2022-07-18T16:03:31;19.30;99.90
19732;DHT22;10017;54.350;18.532;2022-07-18T16:06:05;19.30;99.90
19732;DHT22;10017;54.350;18.532;2022-07-18T16:08:37;19.30;99.90
19732;DHT22;10017;54.350;18.532;2022-07-18T16:11:09;19.30;99.90
19732;DHT22;10017;54.350;18.532;2022-07-18T16:13:42;19.30;99.90
19732;DHT22;10017;54.350;18.532;2022-07-18T16:16:18;19.30;99.90
19732;DHT22;10017;54.350;18.532;2022-07-18T16:18:50;19.30;99.90
19732;DHT22;10017;54.350;18.532;2022-07-18T16:21:22;19.30;99.90
19732;DHT22;10017;54.350;18.532;2022-07-18T16:23:56;19.30;99.90
19732;DHT22;10017;54.350;18.532;2022-07-18T16:26:28;19.30;99.90
19732;DHT22;10017;54.350;18.532;2022-07-18T16:29:03;19.30;99.90
19732;DHT22;10017;54.350;18.532;2022-07-18T16:31:36;19.30;99.90
19732;DHT22;10017;54.350;18.532;2022-07-18T16:34:10;19.30;99.90
19732;DHT22;10017;54.350;18.532;2022-07-18T16:36:45;19.20;99.90
19732;DHT22;10017;54.350;18.532;2022-07-18T16:39:17;19.20;99.90
19732;DHT22;10017;54.350;18.532;2022-07-18T16:41:49;19.20;99.90
19732;DHT22;10017;54.350;18.532;2022-07-18T16:44:28;19.20;99.90
19732;DHT22;10017;54.350;18.532;2022-07-18T16:47:00;19.10;99.90